Time;durP1;ratioP1;P1;durP2;ratioP2;P2;SDS_P1;SDS_P2;PMS_P1;PMS_P2;Temp;Humidity;BMP_temperature;BMP_pressure;BME280_temperature;BME280_humidity;BME280_pressure;Samples;Min_cycle;Max_cycle;Signal;HPM_P1;HPM_P2
2021/04/26 00:01:05;;;;;;;4.57;0.50;;;9.50;46.80;;;;;;5027167;28;20060;-64
2021/04/26 00:03:32;;;;;;;1.90;0.40;;;9.50;46.40;;;;;;5028802;28;20045;-64
2021/04/26 00:05:59;;;;;;;2.38;0.50;;;9.50;46.20;;;;;;5022608;28;20053;-64
2021/04/26 00:08:25;;;;;;;2.28;0.95;;;9.50;46.90;;;;;;5021355;28;20053;-64
2021/04/26 00:10:52;;;;;;;6.45;0.95;;;9.40;46.80;;;;;;5027390;28;20099;-64
2021/04/26 00:13:19;;;;;;;2.60;0.50;;;9.30;46.80;;;;;;5031297;28;20049;-64
2021/04/26 00:15:46;;;;;;;2.38;0.52;;;9.30;47.30;;;;;;5028881;28;20051;-64
2021/04/26 00:18:13;;;;;;;1.05;0.38;;;9.20;47.30;;;;;;5030999;28;20049;-65
2021/04/26 00:20:41;;;;;;;1.30;0.38;;;9.30;47.30;;;;;;5028085;28;20052;-64
2021/04/26 00:23:08;;;;;;;1.50;0.43;;;9.30;47.20;;;;;;5028677;28;20566;-65
2021/04/26 00:25:35;;;;;;;5.88;0.47;;;9.30;47.10;;;;;;5027896;28;20489;-64
2021/04/26 00:28:03;;;;;;;3.17;0.50;;;9.20;48.10;;;;;;5027461;28;20037;-64
2021/04/26 00:30:30;;;;;;;1.80;0.70;;;9.00;48.20;;;;;;5027532;28;20053;-65
2021/04/26 00:32:58;;;;;;;1.85;0.40;;;9.00;49.20;;;;;;5023220;28;20488;-64
2021/04/26 00:35:25;;;;;;;1.88;0.55;;;9.00;48.50;;;;;;5011195;28;20073;-64
2021/04/26 00:37:53;;;;;;;2.03;0.30;;;8.80;48.90;;;;;;5030034;28;20041;-64
2021/04/26 00:40:21;;;;;;;2.67;0.65;;;8.60;50.00;;;;;;5030144;28;20056;-65
2021/04/26 00:42:48;;;;;;;1.73;0.70;;;8.60;50.10;;;;;;5028658;28;20356;-64
2021/04/26 00:45:18;;;;;;;1.85;0.40;;;8.50;51.50;;;;;;5029266;28;20140;-64
2021/04/26 00:47:45;;;;;;;5.30;0.63;;;8.40;51.50;;;;;;5037685;28;20055;-64
2021/04/26 00:50:23;;;;;;;2.60;0.43;;;8.20;52.10;;;;;;5029242;28;20033;-64
2021/04/26 00:52:51;;;;;;;1.92;0.43;;;8.20;53.00;;;;;;5020471;28;20413;-64
2021/04/26 00:55:20;;;;;;;2.17;0.65;;;8.10;54.50;;;;;;5027115;28;20037;-65
2021/04/26 00:57:47;;;;;;;2.17;0.50;;;8.10;54.70;;;;;;4994376;28;20041;-64
2021/04/26 01:00:15;;;;;;;3.00;1.02;;;8.00;54.90;;;;;;5023935;28;20148;-64
2021/04/26 01:02:43;;;;;;;2.17;0.40;;;7.90;54.70;;;;;;5025236;28;20128;-64
2021/04/26 01:05:17;;;;;;;3.45;0.80;;;7.90;55.60;;;;;;5034837;28;20033;-64
2021/04/26 01:07:45;;;;;;;3.90;0.93;;;7.80;55.20;;;;;;5029087;28;20061;-64
2021/04/26 01:10:17;;;;;;;4.60;0.77;;;7.80;54.10;;;;;;5032291;28;20045;-64
2021/04/26 01:12:56;;;;;;;3.85;0.60;;;7.70;54.60;;;;;;5039643;28;20037;-64
2021/04/26 01:15:30;;;;;;;2.33;0.60;;;7.70;54.50;;;;;;5031738;28;20092;-64
2021/04/26 01:18:04;;;;;;;3.00;0.55;;;7.60;54.30;;;;;;5013735;28;20057;-64
2021/04/26 01:21:02;;;;;;;4.95;1.15;;;7.70;54.30;;;;;;5030647;28;20081;-64
2021/04/26 01:23:50;;;;;;;5.65;1.50;;;7.70;53.80;;;;;;5015698;28;20507;-64
2021/04/26 01:26:34;;;;;;;5.53;1.05;;;7.60;54.30;;;;;;5030374;28;20085;-64
2021/04/26 01:29:10;;;;;;;3.53;1.10;;;7.60;53.50;;;;;;5026301;28;20037;-64
2021/04/26 01:31:51;;;;;;;5.75;0.95;;;7.50;54.60;;;;;;5027581;28;20563;-64
2021/04/26 01:34:18;;;;;;;3.17;0.90;;;7.50;56.30;;;;;;5027264;28;20053;-64
2021/04/26 01:37:08;;;;;;;4.68;1.17;;;7.40;56.70;;;;;;5010259;28;20041;-64
2021/04/26 01:39:37;;;;;;;3.80;1.08;;;7.40;57.20;;;;;;5030941;28;20053;-64
2021/04/26 01:42:05;;;;;;;3.88;1.23;;;7.20;58.00;;;;;;5030401;28;20044;-64
2021/04/26 01:44:33;;;;;;;4.35;1.50;;;7.10;58.00;;;;;;5027947;28;20131;-64
2021/04/26 01:47:00;;;;;;;4.88;1.35;;;6.80;57.80;;;;;;5035067;28;20081;-64
2021/04/26 01:49:29;;;;;;;6.53;1.60;;;6.80;58.40;;;;;;5013305;28;20416;-64
2021/04/26 01:51:55;;;;;;;4.85;1.15;;;6.90;58.30;;;;;;5014129;28;20104;-65
2021/04/26 01:54:22;;;;;;;4.22;1.05;;;7.00;58.00;;;;;;5013079;28;20407;-64
2021/04/26 01:56:50;;;;;;;5.00;1.27;;;6.80;58.90;;;;;;5032539;28;20045;-64
2021/04/26 01:59:19;;;;;;;3.88;1.10;;;6.90;59.40;;;;;;5027739;28;20092;-64
2021/04/26 02:01:51;;;;;;;5.90;1.75;;;6.80;59.70;;;;;;5016684;28;20085;-64
2021/04/26 02:04:20;;;;;;;3.75;1.25;;;6.90;59.80;;;;;;5024818;28;20558;-64
2021/04/26 02:06:58;;;;;;;5.55;1.33;;;6.70;59.40;;;;;;5029839;28;20064;-65
2021/04/26 02:09:32;;;;;;;5.15;1.42;;;6.50;60.60;;;;;;5030297;28;20176;-64
2021/04/26 02:12:03;;;;;;;3.13;0.83;;;6.50;60.00;;;;;;5043074;28;20071;-64
2021/04/26 02:14:36;;;;;;;3.78;0.80;;;6.70;58.20;;;;;;5028357;28;20291;-64
2021/04/26 02:17:04;;;;;;;2.65;0.52;;;6.60;58.60;;;;;;5030360;28;20827;-64
2021/04/26 02:19:32;;;;;;;2.70;0.57;;;6.50;58.40;;;;;;5027021;28;20045;-64
2021/04/26 02:21:59;;;;;;;3.13;1.00;;;6.60;58.50;;;;;;5030397;28;20091;-64
2021/04/26 02:24:25;;;;;;;2.17;0.80;;;6.60;58.70;;;;;;5030610;28;20037;-64
2021/04/26 02:26:52;;;;;;;2.03;0.70;;;6.60;57.50;;;;;;5029081;28;20076;-64
2021/04/26 02:29:19;;;;;;;2.58;0.73;;;6.60;58.20;;;;;;5026910;28;20393;-64
2021/04/26 02:31:51;;;;;;;3.35;0.52;;;6.70;58.10;;;;;;5027586;28;20061;-64
2021/04/26 02:34:27;;;;;;;1.90;0.68;;;6.70;57.90;;;;;;5029271;28;20049;-64
2021/04/26 02:37:04;;;;;;;2.13;0.68;;;6.70;58.00;;;;;;5031233;28;20050;-64
2021/04/26 02:39:32;;;;;;;3.30;0.60;;;6.80;56.80;;;;;;5010258;28;20049;-65
2021/04/26 02:42:03;;;;;;;2.10;0.57;;;6.80;56.20;;;;;;5027984;28;20048;-64
2021/04/26 02:44:36;;;;;;;3.13;0.60;;;6.90;56.00;;;;;;5028592;28;20631;-64
2021/04/26 02:47:09;;;;;;;3.03;0.45;;;6.80;57.80;;;;;;5039643;28;20044;-64
2021/04/26 02:49:48;;;;;;;3.67;0.50;;;6.70;58.40;;;;;;5032329;28;20048;-64
2021/04/26 02:52:15;;;;;;;3.40;0.63;;;6.70;57.80;;;;;;4995891;28;20057;-64
2021/04/26 02:54:44;;;;;;;2.17;0.98;;;6.60;58.20;;;;;;5009901;28;20219;-64
2021/04/26 02:57:13;;;;;;;2.25;0.70;;;6.70;59.00;;;;;;5007196;28;20041;-65
2021/04/26 02:59:42;;;;;;;2.08;0.80;;;6.60;59.20;;;;;;5022057;28;20045;-64
2021/04/26 03:02:09;;;;;;;3.28;0.68;;;6.50;60.00;;;;;;5029479;28;20045;-64
2021/04/26 03:04:57;;;;;;;2.08;0.70;;;6.40;60.70;;;;;;5012560;28;20037;-65
2021/04/26 03:07:27;;;;;;;1.67;0.80;;;6.40;60.50;;;;;;5045792;28;20070;-64
2021/04/26 03:09:57;;;;;;;2.42;0.68;;;6.40;59.90;;;;;;5027792;28;20033;-64
2021/04/26 03:12:26;;;;;;;3.45;0.70;;;6.40;61.20;;;;;;5027521;28;20050;-64
2021/04/26 03:14:55;;;;;;;4.78;0.95;;;6.40;62.40;;;;;;5029328;28;20136;-64
2021/04/26 03:17:22;;;;;;;4.55;0.55;;;6.40;61.40;;;;;;5042077;28;20048;-64
2021/04/26 03:20:04;;;;;;;3.45;0.88;;;6.30;61.30;;;;;;5007717;28;20037;-64
2021/04/26 03:22:35;;;;;;;3.65;1.30;;;6.30;62.10;;;;;;5027264;28;20041;-64
2021/04/26 03:25:01;;;;;;;3.05;1.00;;;6.30;63.00;;;;;;5029023;28;20416;-64
2021/04/26 03:27:29;;;;;;;3.85;0.88;;;6.20;63.90;;;;;;5026668;28;20781;-64
2021/04/26 03:29:56;;;;;;;4.30;1.35;;;6.10;65.40;;;;;;5032680;28;20160;-65
2021/04/26 03:32:28;;;;;;;4.00;1.05;;;6.10;64.00;;;;;;5029246;28;20127;-64
2021/04/26 03:35:06;;;;;;;3.55;0.73;;;6.00;64.40;;;;;;5031811;28;20033;-64
2021/04/26 03:37:40;;;;;;;3.47;0.65;;;5.80;66.10;;;;;;5032115;28;20056;-64
2021/04/26 03:40:08;;;;;;;2.80;1.08;;;5.90;66.80;;;;;;5029749;28;20405;-65
2021/04/26 03:42:34;;;;;;;7.07;1.30;;;5.90;66.60;;;;;;5009004;28;20047;-64
2021/04/26 03:45:02;;;;;;;3.22;0.98;;;5.80;67.60;;;;;;5027611;28;20049;-64
2021/04/26 03:47:38;;;;;;;4.70;1.40;;;5.80;67.50;;;;;;5039851;28;20061;-64
2021/04/26 03:50:25;;;;;;;6.05;1.42;;;5.90;67.20;;;;;;5030208;28;20059;-64
2021/04/26 03:53:10;;;;;;;6.45;1.90;;;5.90;65.80;;;;;;5028565;28;20057;-66
2021/04/26 03:56:08;;;;;;;4.05;1.38;;;5.90;66.40;;;;;;5014324;28;20144;-66
2021/04/26 03:58:35;;;;;;;3.50;1.38;;;6.00;65.80;;;;;;5024353;28;20184;-65
2021/04/26 04:01:03;;;;;;;5.28;1.75;;;6.00;67.40;;;;;;5028558;28;20042;-64
2021/04/26 04:03:31;;;;;;;4.95;1.77;;;5.80;66.90;;;;;;5027912;28;20037;-64
2021/04/26 04:05:59;;;;;;;3.63;1.77;;;5.70;68.20;;;;;;5011436;28;20133;-64
2021/04/26 04:08:44;;;;;;;5.85;2.65;;;5.50;69.10;;;;;;5029091;28;20184;-66
2021/04/26 04:11:44;;;;;;;11.85;3.33;;;5.50;69.00;;;;;;5027086;28;20136;-66
2021/04/26 04:14:29;;;;;;;7.75;2.40;;;5.50;67.60;;;;;;5013460;28;20041;-67
2021/04/26 04:17:03;;;;;;;10.68;2.80;;;5.80;64.90;;;;;;5023943;28;20075;-66
2021/04/26 04:19:30;;;;;;;7.20;2.00;;;6.00;63.60;;;;;;5006362;28;20566;-66
2021/04/26 04:21:58;;;;;;;4.82;1.60;;;6.10;63.30;;;;;;5015526;28;20176;-66
2021/04/26 04:24:24;;;;;;;7.03;1.92;;;6.20;62.30;;;;;;5002246;28;20490;-66
2021/04/26 04:26:52;;;;;;;4.53;1.70;;;6.20;62.20;;;;;;5029494;28;20072;-66
2021/04/26 04:29:19;;;;;;;13.77;2.13;;;6.30;62.70;;;;;;5031728;28;20072;-66
2021/04/26 04:31:52;;;;;;;10.98;1.80;;;6.40;63.10;;;;;;5032920;28;20036;-66
2021/04/26 04:34:48;;;;;;;5.50;1.20;;;6.50;63.00;;;;;;5022808;28;20058;-66
2021/04/26 04:37:34;;;;;;;4.60;1.80;;;6.50;62.60;;;;;;5036596;28;20063;-66
2021/04/26 04:40:19;;;;;;;4.28;1.50;;;6.40;61.50;;;;;;5030970;28;20530;-66
2021/04/26 04:42:53;;;;;;;3.63;1.75;;;6.50;61.70;;;;;;5030694;28;20060;-66
2021/04/26 04:45:22;;;;;;;5.72;1.67;;;6.40;61.40;;;;;;5028800;28;20049;-67
2021/04/26 04:48:18;;;;;;;2.97;1.00;;;6.40;61.30;;;;;;5028083;28;20057;-66
2021/04/26 04:50:48;;;;;;;3.78;1.70;;;6.50;60.50;;;;;;5023947;28;20137;-66
2021/04/26 04:53:15;;;;;;;6.35;1.60;;;6.50;60.70;;;;;;5019587;28;20496;-66
2021/04/26 04:55:43;;;;;;;5.80;1.90;;;6.50;61.00;;;;;;5020164;28;20179;-67
2021/04/26 04:58:10;;;;;;;2.55;1.67;;;6.50;61.30;;;;;;5039327;28;20542;-66
2021/04/26 05:00:37;;;;;;;5.55;1.85;;;6.70;61.20;;;;;;5028919;28;20059;-66
2021/04/26 05:03:25;;;;;;;11.27;2.20;;;6.80;59.80;;;;;;5018451;28;20052;-66
2021/04/26 05:06:10;;;;;;;4.22;2.03;;;6.90;61.50;;;;;;5024008;28;20064;-63
2021/04/26 05:08:55;;;;;;;5.45;1.98;;;7.10;60.30;;;;;;5022276;28;20440;-63
2021/04/26 05:11:41;;;;;;;4.22;1.88;;;7.20;59.40;;;;;;5014689;28;20064;-63
2021/04/26 05:14:34;;;;;;;4.15;1.42;;;7.40;58.50;;;;;;5022376;28;20049;-63
2021/04/26 05:17:02;;;;;;;6.07;1.40;;;7.50;56.90;;;;;;5030138;28;20052;-63
2021/04/26 05:19:28;;;;;;;5.50;1.67;;;7.60;56.40;;;;;;5031555;28;20404;-63
2021/04/26 05:21:55;;;;;;;4.43;0.98;;;7.60;56.30;;;;;;5026370;28;20045;-63
2021/04/26 05:24:21;;;;;;;4.00;1.40;;;7.60;56.10;;;;;;5008998;28;20056;-63
2021/04/26 05:26:48;;;;;;;5.15;1.63;;;7.70;55.30;;;;;;5029256;28;20763;-63
2021/04/26 05:29:17;;;;;;;3.33;1.15;;;7.80;55.30;;;;;;5012010;28;20580;-63
2021/04/26 05:31:43;;;;;;;3.25;1.10;;;7.90;54.90;;;;;;5027460;28;20466;-63
2021/04/26 05:34:11;;;;;;;2.38;1.20;;;8.00;54.50;;;;;;5030035;28;20738;-63
2021/04/26 05:36:40;;;;;;;5.22;2.88;;;8.10;55.60;;;;;;5014704;28;20037;-63
2021/04/26 05:39:07;;;;;;;6.63;2.40;;;8.00;55.60;;;;;;5055731;28;20048;-63
2021/04/26 05:41:35;;;;;;;3.42;1.48;;;8.20;55.40;;;;;;5033086;28;20570;-63
2021/04/26 05:44:08;;;;;;;3.25;1.38;;;8.20;55.50;;;;;;5027907;28;20046;-63
2021/04/26 05:46:44;;;;;;;5.95;1.55;;;8.30;55.90;;;;;;5036434;28;20085;-63
2021/04/26 05:49:11;;;;;;;5.25;1.50;;;8.40;53.70;;;;;;5042672;28;20072;-63
2021/04/26 05:51:37;;;;;;;3.78;1.48;;;8.50;52.90;;;;;;5027787;28;20037;-64
2021/04/26 05:54:04;;;;;;;5.30;1.58;;;8.50;52.90;;;;;;5030146;28;20039;-63
2021/04/26 05:56:31;;;;;;;4.28;1.67;;;8.50;53.10;;;;;;5029330;28;20056;-63
2021/04/26 05:58:57;;;;;;;3.92;1.38;;;8.50;52.70;;;;;;5027092;28;20041;-63
2021/04/26 06:01:24;;;;;;;3.28;1.58;;;8.50;52.70;;;;;;5020862;28;20041;-63
2021/04/26 06:03:51;;;;;;;3.53;1.67;;;8.60;52.80;;;;;;5023744;28;20068;-63
2021/04/26 06:06:17;;;;;;;4.97;1.65;;;8.70;51.80;;;;;;5034889;28;20045;-63
2021/04/26 06:08:44;;;;;;;9.45;2.08;;;8.70;52.50;;;;;;5026160;28;20056;-63
2021/04/26 06:11:11;;;;;;;3.97;1.70;;;8.70;52.60;;;;;;5024911;28;20038;-63
2021/04/26 06:13:38;;;;;;;5.25;1.70;;;8.80;52.00;;;;;;5031506;28;20644;-63
2021/04/26 06:16:06;;;;;;;3.47;1.75;;;8.90;51.50;;;;;;5008989;28;20046;-63
2021/04/26 06:18:33;;;;;;;6.32;2.25;;;9.00;51.60;;;;;;5020290;28;20034;-63
2021/04/26 06:21:00;;;;;;;4.10;1.52;;;9.10;51.30;;;;;;5031111;28;20037;-63
2021/04/26 06:23:27;;;;;;;4.43;1.63;;;9.10;51.20;;;;;;5003312;28;20607;-63
2021/04/26 06:25:53;;;;;;;5.50;1.75;;;9.20;50.40;;;;;;5026897;28;20068;-63
2021/04/26 06:28:20;;;;;;;2.60;1.40;;;9.30;51.40;;;;;;5027870;28;20061;-63
2021/04/26 06:30:47;;;;;;;5.32;2.35;;;9.30;52.00;;;;;;5031997;28;20064;-64
2021/04/26 06:33:17;;;;;;;5.72;1.52;;;9.40;52.70;;;;;;5040502;28;20041;-63
2021/04/26 06:35:46;;;;;;;5.60;1.73;;;9.50;52.90;;;;;;5029973;28;20041;-63
2021/04/26 06:38:13;;;;;;;3.10;1.42;;;9.60;52.90;;;;;;5028164;28;20041;-63
2021/04/26 06:40:41;;;;;;;3.30;1.67;;;9.70;52.50;;;;;;5027525;28;20045;-63
2021/04/26 06:43:12;;;;;;;5.43;2.05;;;9.90;51.30;;;;;;5026597;28;20064;-63
2021/04/26 06:45:42;;;;;;;3.53;1.80;;;9.90;51.40;;;;;;5028410;28;20039;-63
2021/04/26 06:48:09;;;;;;;4.95;1.60;;;10.00;52.00;;;;;;5028693;28;20060;-63
2021/04/26 06:50:36;;;;;;;5.30;1.58;;;10.10;50.60;;;;;;5025329;28;20674;-63
2021/04/26 06:53:03;;;;;;;10.82;1.73;;;10.10;49.80;;;;;;5026489;28;20041;-64
2021/04/26 06:55:30;;;;;;;5.93;1.52;;;10.20;49.70;;;;;;5031169;28;20049;-63
2021/04/26 06:57:57;;;;;;;4.13;0.82;;;10.30;49.60;;;;;;5023902;28;20455;-64
2021/04/26 07:00:26;;;;;;;11.43;1.52;;;10.40;49.80;;;;;;5008983;28;20071;-64
2021/04/26 07:02:52;;;;;;;4.57;1.40;;;10.60;50.10;;;;;;5009768;28;20060;-63
2021/04/26 07:05:19;;;;;;;4.47;1.77;;;10.70;47.00;;;;;;5022055;28;20413;-63
2021/04/26 07:07:46;;;;;;;3.08;1.10;;;10.70;45.70;;;;;;5028992;28;20077;-63
2021/04/26 07:10:13;;;;;;;4.35;1.63;;;10.70;45.60;;;;;;5027293;28;20045;-63
2021/04/26 07:12:41;;;;;;;3.40;1.05;;;10.70;45.70;;;;;;5031905;28;20048;-63
2021/04/26 07:15:09;;;;;;;3.15;1.35;;;10.70;46.00;;;;;;5012432;28;20041;-63
2021/04/26 07:17:36;;;;;;;4.18;1.50;;;10.70;45.80;;;;;;5007633;28;20053;-63
2021/04/26 07:20:04;;;;;;;4.20;1.30;;;10.80;47.10;;;;;;5028174;28;20045;-63
2021/04/26 07:22:31;;;;;;;4.07;1.05;;;10.90;47.10;;;;;;5025799;28;20060;-63
2021/04/26 07:24:57;;;;;;;3.75;1.27;;;11.00;45.80;;;;;;5027834;28;20751;-64
2021/04/26 07:27:24;;;;;;;3.45;1.23;;;10.90;44.20;;;;;;5028308;28;20057;-63
2021/04/26 07:29:51;;;;;;;5.65;1.40;;;11.00;45.00;;;;;;5037128;28;20095;-63
2021/04/26 07:32:17;;;;;;;4.15;1.48;;;10.90;45.70;;;;;;5031148;28;20042;-64
2021/04/26 07:34:44;;;;;;;3.50;1.35;;;10.90;46.30;;;;;;5006318;28;20042;-63
2021/04/26 07:37:10;;;;;;;5.65;1.33;;;10.90;46.30;;;;;;5013902;28;20515;-63
2021/04/26 07:39:37;;;;;;;3.17;1.40;;;11.00;46.90;;;;;;5029462;28;20480;-64
2021/04/26 07:42:05;;;;;;;5.95;1.67;;;11.00;45.90;;;;;;5037910;28;20151;-63
2021/04/26 07:44:31;;;;;;;3.25;1.15;;;11.00;45.60;;;;;;5032660;28;20079;-63
2021/04/26 07:46:59;;;;;;;4.57;1.60;;;11.00;45.90;;;;;;5032061;28;20044;-63
2021/04/26 07:49:26;;;;;;;6.78;1.25;;;11.10;46.00;;;;;;5022462;28;20433;-63
2021/04/26 07:51:53;;;;;;;4.28;1.60;;;11.20;45.20;;;;;;5024842;28;20064;-63
2021/04/26 07:54:19;;;;;;;2.65;1.20;;;11.20;45.40;;;;;;5022504;28;20053;-64
2021/04/26 07:56:46;;;;;;;5.68;1.38;;;11.20;44.20;;;;;;5026504;28;20773;-63
2021/04/26 07:59:13;;;;;;;4.18;1.60;;;11.20;44.40;;;;;;5026927;28;20057;-63
2021/04/26 08:01:39;;;;;;;2.42;1.10;;;11.20;44.40;;;;;;5024616;28;20045;-63
2021/04/26 08:04:07;;;;;;;1.65;0.88;;;11.30;46.00;;;;;;5026930;28;20033;-63
2021/04/26 08:06:33;;;;;;;3.40;1.55;;;11.40;44.20;;;;;;5024212;28;21923;-63
2021/04/26 08:09:00;;;;;;;8.30;1.20;;;11.50;44.30;;;;;;5025733;28;20037;-63
2021/04/26 08:11:27;;;;;;;4.07;1.30;;;11.50;44.30;;;;;;5030545;28;20472;-64
2021/04/26 08:13:53;;;;;;;2.35;0.70;;;11.60;43.50;;;;;;5019100;28;20405;-63
2021/04/26 08:16:20;;;;;;;2.72;0.68;;;11.60;43.30;;;;;;5031593;28;20053;-63
2021/04/26 08:18:52;;;;;;;4.05;1.40;;;11.70;42.60;;;;;;5036151;28;20116;-63
2021/04/26 08:21:18;;;;;;;4.07;1.75;;;11.70;43.90;;;;;;5030876;28;20055;-63
2021/04/26 08:23:45;;;;;;;2.75;1.25;;;11.70;43.80;;;;;;5023525;28;20042;-63
2021/04/26 08:26:12;;;;;;;5.80;1.35;;;11.70;44.50;;;;;;5030654;28;20107;-63
2021/04/26 08:28:39;;;;;;;2.67;1.27;;;11.90;46.50;;;;;;5027108;28;20095;-63
2021/04/26 08:31:07;;;;;;;2.70;1.15;;;12.00;43.00;;;;;;5032750;28;20495;-63
2021/04/26 08:33:39;;;;;;;3.97;1.20;;;12.00;41.90;;;;;;5031541;28;20045;-63
2021/04/26 08:36:07;;;;;;;2.70;0.68;;;12.00;42.70;;;;;;5038682;28;20051;-63
2021/04/26 08:38:34;;;;;;;2.55;0.80;;;12.00;40.90;;;;;;5033973;28;20053;-63
2021/04/26 08:41:01;;;;;;;4.50;0.70;;;11.90;40.70;;;;;;5021256;28;20480;-63
2021/04/26 08:43:29;;;;;;;2.55;0.80;;;12.00;43.60;;;;;;5029033;28;20095;-63
2021/04/26 08:46:00;;;;;;;5.85;0.77;;;12.20;41.10;;;;;;5031060;28;20042;-63
2021/04/26 08:48:28;;;;;;;2.03;0.70;;;12.30;38.70;;;;;;5010002;28;20469;-63
2021/04/26 08:50:56;;;;;;;2.30;0.70;;;12.30;38.60;;;;;;5031988;28;20523;-63
2021/04/26 08:53:23;;;;;;;2.53;0.60;;;12.30;38.90;;;;;;5028999;28;20690;-63
2021/04/26 08:55:49;;;;;;;2.10;0.60;;;12.30;38.80;;;;;;5029901;28;20049;-63
2021/04/26 08:58:16;;;;;;;1.98;0.60;;;12.40;41.50;;;;;;5030445;28;20041;-63
2021/04/26 09:00:43;;;;;;;1.70;0.40;;;12.60;38.70;;;;;;5027477;28;20045;-63
2021/04/26 09:03:09;;;;;;;2.88;0.95;;;12.70;41.00;;;;;;5035214;28;20068;-64
2021/04/26 09:05:38;;;;;;;0.88;0.50;;;12.80;38.70;;;;;;5030499;28;20045;-63
2021/04/26 09:08:10;;;;;;;3.22;0.95;;;12.90;39.00;;;;;;5024005;28;20046;-63
2021/04/26 09:10:48;;;;;;;1.40;0.68;;;13.00;38.10;;;;;;5035167;28;20052;-63
2021/04/26 09:13:30;;;;;;;4.15;1.00;;;13.00;37.50;;;;;;5034148;28;20049;-63
2021/04/26 09:16:03;;;;;;;2.70;1.20;;;12.90;37.30;;;;;;5017622;28;20137;-64
2021/04/26 09:18:42;;;;;;;;;;;13.00;38.70;;;;;;5023117;28;20068;-63
2021/04/26 09:21:33;;;;;;;1.63;0.90;;;13.00;37.20;;;;;;5027457;28;20019;-63
2021/04/26 09:24:36;;;;;;;1.95;0.52;;;13.00;37.10;;;;;;5026753;28;20069;-63
2021/04/26 09:27:10;;;;;;;5.18;0.63;;;13.10;37.10;;;;;;5023473;28;20045;-64
2021/04/26 09:29:39;;;;;;;2.83;0.90;;;13.20;38.00;;;;;;5026007;28;20042;-63
2021/04/26 09:32:13;;;;;;;1.75;0.60;;;13.30;37.10;;;;;;5027973;28;20045;-63
2021/04/26 09:34:48;;;;;;;2.47;0.77;;;13.30;38.10;;;;;;5031259;28;20123;-63
2021/04/26 09:37:18;;;;;;;1.05;0.50;;;13.40;37.10;;;;;;5033999;28;20041;-63
2021/04/26 09:40:12;;;;;;;2.72;0.90;;;13.50;40.60;;;;;;5025596;28;20103;-64
2021/04/26 09:42:57;;;;;;;2.08;1.33;;;13.60;38.20;;;;;;5021620;28;20050;-64
2021/04/26 09:45:29;;;;;;;2.10;1.00;;;13.70;39.40;;;;;;5030277;28;20063;-63
2021/04/26 09:48:15;;;;;;;3.70;1.10;;;13.70;37.10;;;;;;5023726;28;20045;-63
2021/04/26 09:51:04;;;;;;;2.95;0.88;;;13.60;37.90;;;;;;5017977;28;20049;-63
2021/04/26 09:53:35;;;;;;;1.58;0.95;;;13.70;38.10;;;;;;5020760;28;20121;-64
2021/04/26 09:56:22;;;;;;;4.45;1.27;;;13.80;39.10;;;;;;5024000;28;20049;-63
2021/04/26 09:58:52;;;;;;;2.67;1.20;;;13.80;39.40;;;;;;5028195;28;20044;-64
2021/04/26 10:01:21;;;;;;;5.35;1.65;;;13.80;38.90;;;;;;5025796;28;20052;-64
2021/04/26 10:03:49;;;;;;;1.85;1.25;;;13.70;37.80;;;;;;5025357;28;20090;-63
2021/04/26 10:06:19;;;;;;;3.22;1.42;;;13.70;37.60;;;;;;5041106;28;20484;-63
2021/04/26 10:08:48;;;;;;;4.40;1.27;;;13.60;38.10;;;;;;5016801;28;20082;-64
2021/04/26 10:11:15;;;;;;;3.03;1.33;;;13.60;36.90;;;;;;5015414;28;20045;-63
2021/04/26 10:13:44;;;;;;;3.00;1.50;;;13.80;39.70;;;;;;5023809;28;20461;-64
2021/04/26 10:16:25;;;;;;;4.38;1.30;;;13.80;37.10;;;;;;5021877;28;20092;-64
2021/04/26 10:18:59;;;;;;;3.63;1.25;;;13.80;37.80;;;;;;5019151;28;20578;-64
2021/04/26 10:21:26;;;;;;;5.03;1.77;;;13.90;38.30;;;;;;5020117;28;20508;-63
2021/04/26 10:23:54;;;;;;;3.03;1.60;;;14.00;38.80;;;;;;5022988;28;20137;-63
2021/04/26 10:26:50;;;;;;;2.58;1.30;;;14.20;36.80;;;;;;5018764;28;20050;-63
2021/04/26 10:29:26;;;;;;;4.20;1.27;;;14.30;35.70;;;;;;5017455;28;20046;-63
2021/04/26 10:32:01;;;;;;;4.97;2.05;;;14.50;39.80;;;;;;5019754;28;20041;-63
2021/04/26 10:34:33;;;;;;;3.88;1.75;;;14.70;37.70;;;;;;5021830;28;20044;-63
2021/04/26 10:37:21;;;;;;;3.35;1.60;;;14.90;40.20;;;;;;5023910;28;20061;-63
2021/04/26 10:39:59;;;;;;;3.90;1.70;;;15.00;36.60;;;;;;5024989;28;20072;-64
2021/04/26 10:42:36;;;;;;;3.15;1.60;;;14.80;36.50;;;;;;5022525;28;20051;-64
2021/04/26 10:45:13;;;;;;;3.03;1.70;;;14.80;38.60;;;;;;5021637;28;20045;-64
2021/04/26 10:47:42;;;;;;;3.60;1.50;;;14.80;36.50;;;;;;5024872;28;20041;-63
2021/04/26 10:50:17;;;;;;;2.85;1.42;;;15.00;39.00;;;;;;5016478;28;20041;-64
2021/04/26 10:52:56;;;;;;;4.78;1.63;;;15.10;39.00;;;;;;5023097;28;20042;-64
2021/04/26 10:55:23;;;;;;;4.03;1.52;;;15.20;39.10;;;;;;5016339;28;20046;-64
2021/04/26 10:57:52;;;;;;;4.38;1.67;;;15.40;38.60;;;;;;5011774;28;20132;-64
2021/04/26 11:00:22;;;;;;;5.30;1.52;;;15.40;37.80;;;;;;5024401;28;20107;-64
2021/04/26 11:02:56;;;;;;;4.50;1.60;;;15.50;38.00;;;;;;5027551;28;20034;-64
2021/04/26 11:05:34;;;;;;;3.33;1.70;;;15.50;38.70;;;;;;5028786;28;20049;-64
2021/04/26 11:08:11;;;;;;;4.30;2.10;;;15.50;38.70;;;;;;5019461;28;20045;-64
2021/04/26 11:10:43;;;;;;;3.33;1.90;;;15.70;37.50;;;;;;5029440;28;20041;-64
2021/04/26 11:13:34;;;;;;;3.78;1.60;;;16.00;39.50;;;;;;5026359;28;20063;-64
2021/04/26 11:16:17;;;;;;;5.38;2.17;;;16.20;36.20;;;;;;5020004;28;20049;-64
2021/04/26 11:18:52;;;;;;;;;;;16.10;36.30;;;;;;5024884;28;20057;-64
2021/04/26 11:21:47;;;;;;;4.07;1.50;;;15.80;36.50;;;;;;5038705;28;19929;-64
2021/04/26 11:24:25;;;;;;;4.13;1.67;;;15.40;36.40;;;;;;5021806;28;20488;-64
2021/04/26 11:27:16;;;;;;;5.57;2.65;;;15.20;36.70;;;;;;5001822;28;20057;-64
2021/04/26 11:29:48;;;;;;;5.30;2.15;;;15.30;36.80;;;;;;5021929;28;20100;-63
2021/04/26 11:32:16;;;;;;;6.30;1.90;;;15.40;37.20;;;;;;5032918;28;20427;-63
2021/04/26 11:35:01;;;;;;;4.78;1.77;;;15.40;37.30;;;;;;5023351;28;20043;-63
2021/04/26 11:37:30;;;;;;;5.25;1.90;;;15.30;37.90;;;;;;5014308;28;20053;-63
2021/04/26 11:39:57;;;;;;;3.55;1.88;;;15.20;36.70;;;;;;5028234;28;20061;-63
2021/04/26 11:42:26;;;;;;;4.47;1.73;;;15.20;37.50;;;;;;5024575;28;20519;-63
2021/04/26 11:44:54;;;;;;;2.92;2.00;;;15.20;37.70;;;;;;5022024;28;20060;-64
2021/04/26 11:47:22;;;;;;;3.72;1.77;;;15.10;39.20;;;;;;5027714;28;20048;-64
2021/04/26 11:49:54;;;;;;;4.18;2.05;;;15.10;40.00;;;;;;5020866;28;20041;-63
2021/04/26 11:52:23;;;;;;;4.13;1.88;;;14.90;37.70;;;;;;5021380;28;20061;-63
2021/04/26 11:55:08;;;;;;;6.22;2.22;;;14.90;38.60;;;;;;5023079;28;20443;-63
2021/04/26 11:57:54;;;;;;;4.60;2.72;;;14.70;37.70;;;;;;5007425;28;20065;-63
2021/04/26 12:00:25;;;;;;;4.60;2.17;;;14.40;38.90;;;;;;5024576;28;20580;-63
2021/04/26 12:02:59;;;;;;;4.63;2.45;;;14.30;38.70;;;;;;5027914;28;20052;-63
2021/04/26 12:05:27;;;;;;;3.13;2.38;;;14.30;39.70;;;;;;5034652;28;20062;-63
2021/04/26 12:07:55;;;;;;;6.25;2.40;;;14.10;38.70;;;;;;5024585;28;20054;-63
2021/04/26 12:10:41;;;;;;;7.03;2.25;;;14.10;39.50;;;;;;5022301;28;20428;-63
2021/04/26 12:13:08;;;;;;;6.07;2.08;;;13.90;39.30;;;;;;5023242;28;20049;-63
2021/04/26 12:15:37;;;;;;;6.40;2.17;;;14.00;39.30;;;;;;5022215;28;20479;-63
2021/04/26 12:18:06;;;;;;;3.65;1.67;;;14.00;39.70;;;;;;5024248;28;20121;-63
2021/04/26 12:20:43;;;;;;;7.18;1.98;;;13.90;38.80;;;;;;5025093;28;20037;-63
2021/04/26 12:23:20;;;;;;;5.57;1.98;;;13.70;39.40;;;;;;5020243;28;20053;-63
2021/04/26 12:25:48;;;;;;;3.92;2.17;;;13.60;39.70;;;;;;5020117;28;20493;-63
2021/04/26 12:28:18;;;;;;;4.47;2.00;;;13.60;39.60;;;;;;5019906;28;20489;-64
2021/04/26 12:30:53;;;;;;;6.78;2.35;;;13.60;39.60;;;;;;5025111;28;20053;-63
2021/04/26 12:33:30;;;;;;;5.20;1.90;;;13.70;41.00;;;;;;5017938;28;20045;-63
2021/04/26 12:35:59;;;;;;;4.30;1.90;;;13.70;39.90;;;;;;5018121;28;20046;-63
2021/04/26 12:38:35;;;;;;;3.90;1.77;;;13.80;39.10;;;;;;5014685;28;20054;-63
2021/04/26 12:41:03;;;;;;;2.90;1.70;;;13.70;39.00;;;;;;5022686;28;20132;-63
2021/04/26 12:43:34;;;;;;;3.88;1.58;;;13.60;39.30;;;;;;5022100;28;20049;-64
2021/04/26 12:46:14;;;;;;;4.13;1.85;;;13.50;39.60;;;;;;5025039;28;20534;-63
2021/04/26 12:48:42;;;;;;;18.08;9.18;;;13.50;39.50;;;;;;5024755;28;20048;-63
2021/04/26 12:51:10;;;;;;;8.27;4.72;;;13.60;39.90;;;;;;5026397;28;20123;-63
2021/04/26 12:53:38;;;;;;;6.88;2.30;;;13.70;40.40;;;;;;5021199;28;20785;-63
2021/04/26 12:56:10;;;;;;;6.28;2.33;;;13.70;42.50;;;;;;5017680;28;20388;-64
2021/04/26 12:58:38;;;;;;;4.00;1.90;;;13.80;41.10;;;;;;5024671;28;20389;-64
2021/04/26 13:01:05;;;;;;;2.90;1.63;;;13.90;40.80;;;;;;5024517;28;20640;-64
2021/04/26 13:03:42;;;;;;;25.00;11.25;;;13.90;39.70;;;;;;5018013;28;20045;-64
2021/04/26 13:06:10;;;;;;;10.63;4.80;;;13.70;39.70;;;;;;5027123;28;20041;-63
2021/04/26 13:08:39;;;;;;;6.88;2.45;;;13.70;40.50;;;;;;5018339;28;20041;-63
2021/04/26 13:11:08;;;;;;;9.90;2.78;;;13.60;39.90;;;;;;5027241;28;20053;-64
2021/04/26 13:13:50;;;;;;;6.93;2.40;;;13.60;40.00;;;;;;5005276;28;20439;-62
2021/04/26 13:16:19;;;;;;;5.15;2.47;;;13.50;40.10;;;;;;5022054;28;20695;-63